createdAt,value
2018-10-09T00:00:25.750Z,8.13
2018-10-09T00:02:54.803Z,8.13
2018-10-09T00:05:23.782Z,7.50
2018-10-09T00:07:52.816Z,8.67
2018-10-09T00:10:21.866Z,9.00
2018-10-09T00:12:50.869Z,8.27
2018-10-09T00:15:19.878Z,8.30
2018-10-09T00:17:48.862Z,7.13
2018-10-09T00:20:19.662Z,7.73
2018-10-09T00:22:48.688Z,7.57
2018-10-09T00:25:17.711Z,8.47
2018-10-09T00:27:46.691Z,7.33
2018-10-09T00:30:15.714Z,7.47
2018-10-09T00:32:44.710Z,7.60
2018-10-09T00:35:13.795Z,6.93
2018-10-09T00:37:42.836Z,6.67
2018-10-09T00:40:11.943Z,6.50
2018-10-09T00:42:41.001Z,6.87
2018-10-09T00:45:10.034Z,6.90
2018-10-09T00:47:39.099Z,6.40
2018-10-09T00:50:08.538Z,6.57
2018-10-09T00:52:37.574Z,6.47
2018-10-09T00:55:07.065Z,6.37
2018-10-09T00:57:36.099Z,6.17
2018-10-09T01:00:05.477Z,7.13
2018-10-09T01:02:34.483Z,8.13
2018-10-09T01:05:03.541Z,8.20
2018-10-09T01:07:32.579Z,7.67
2018-10-09T01:10:01.571Z,7.67
2018-10-09T01:12:30.600Z,6.83
2018-10-09T01:14:59.599Z,7.27
2018-10-09T01:17:28.591Z,7.43
2018-10-09T01:19:57.623Z,6.60
2018-10-09T01:22:26.673Z,6.37
2018-10-09T01:24:55.711Z,6.20
2018-10-09T01:27:24.744Z,6.60
2018-10-09T01:29:53.765Z,6.97
2018-10-09T01:32:22.783Z,8.03
2018-10-09T01:34:51.780Z,8.17
2018-10-09T01:37:20.816Z,7.67
2018-10-09T01:39:49.998Z,7.33
2018-10-09T01:42:18.996Z,8.17
2018-10-09T01:44:48.013Z,9.63
2018-10-09T01:47:17.016Z,10.00
2018-10-09T01:49:46.040Z,8.47
2018-10-09T01:52:15.030Z,9.77
2018-10-09T01:54:44.035Z,8.90
2018-10-09T01:57:13.041Z,9.37
2018-10-09T01:59:42.028Z,9.30
2018-10-09T02:02:11.018Z,9.10
2018-10-09T02:04:40.062Z,9.17
2018-10-09T02:07:09.264Z,9.50
2018-10-09T02:09:38.282Z,9.70
2018-10-09T02:12:07.334Z,9.63
2018-10-09T02:14:36.334Z,10.37
2018-10-09T02:17:05.535Z,9.43
2018-10-09T02:19:34.527Z,9.70
2018-10-09T02:22:03.530Z,9.03
2018-10-09T02:24:32.579Z,9.03
2018-10-09T02:27:01.576Z,9.27
2018-10-09T02:29:30.576Z,9.47
2018-10-09T02:31:59.582Z,9.23
2018-10-09T02:34:28.602Z,8.40
2018-10-09T02:36:57.596Z,8.87
2018-10-09T02:39:26.589Z,8.43
2018-10-09T02:41:55.588Z,8.33
2018-10-09T02:44:24.628Z,8.27
2018-10-09T02:46:53.645Z,9.23
2018-10-09T02:49:22.662Z,8.90
2018-10-09T02:51:51.667Z,10.20
2018-10-09T02:54:20.650Z,11.00
2018-10-09T02:56:49.701Z,9.23
2018-10-09T02:59:18.695Z,10.25
2018-10-09T03:01:47.694Z,10.03
2018-10-09T03:04:16.779Z,9.63
2018-10-09T03:06:45.835Z,9.67
2018-10-09T03:09:14.892Z,10.23
2018-10-09T03:11:43.889Z,9.30
2018-10-09T03:14:12.877Z,9.33
2018-10-09T03:16:41.907Z,9.70
2018-10-09T03:19:11.165Z,9.57
2018-10-09T03:21:40.149Z,10.00
2018-10-09T03:24:09.153Z,10.03
2018-10-09T03:26:38.183Z,10.17
2018-10-09T03:29:07.431Z,9.53
2018-10-09T03:31:36.532Z,10.30
2018-10-09T03:34:05.685Z,9.93
2018-10-09T03:36:34.739Z,11.00
2018-10-09T03:39:04.650Z,11.30
2018-10-09T03:41:33.647Z,11.97
2018-10-09T03:44:02.707Z,11.57
2018-10-09T03:46:31.730Z,12.17
2018-10-09T03:49:00.768Z,12.10
2018-10-09T03:51:29.821Z,11.73
2018-10-09T03:53:58.843Z,11.57
2018-10-09T03:56:27.856Z,12.33
2018-10-09T03:58:56.843Z,10.77
2018-10-09T04:01:26.775Z,10.50
2018-10-09T04:03:55.792Z,10.87
2018-10-09T04:06:24.852Z,11.40
2018-10-09T04:08:53.938Z,11.77
2018-10-09T04:11:22.924Z,11.27
2018-10-09T04:13:51.961Z,11.90
2018-10-09T04:16:20.975Z,11.60
2018-10-09T04:18:50.036Z,11.37
2018-10-09T04:21:19.065Z,10.97
2018-10-09T04:23:48.063Z,11.80
2018-10-09T04:26:17.093Z,11.73
2018-10-09T04:28:46.107Z,11.23
2018-10-09T04:31:15.144Z,10.10
2018-10-09T04:33:44.147Z,8.97
2018-10-09T04:36:13.170Z,10.40
2018-10-09T04:38:42.182Z,11.77
2018-10-09T04:41:11.213Z,10.43
2018-10-09T04:43:40.243Z,9.70
2018-10-09T04:46:09.253Z,9.67
2018-10-09T04:48:38.245Z,8.37
2018-10-09T04:51:07.237Z,9.23
2018-10-09T04:53:36.225Z,9.93
2018-10-09T04:56:05.239Z,8.90
2018-10-09T04:58:34.243Z,8.73
2018-10-09T05:01:03.251Z,9.60
2018-10-09T05:03:32.229Z,8.97
2018-10-09T05:06:01.398Z,9.20
2018-10-09T05:08:30.396Z,9.73
2018-10-09T05:10:59.415Z,10.43
2018-10-09T05:13:28.418Z,9.97
2018-10-09T05:15:57.454Z,11.03
2018-10-09T05:18:26.446Z,10.43
2018-10-09T05:20:55.531Z,11.50
2018-10-09T05:23:24.524Z,11.77
2018-10-09T05:25:53.710Z,11.47
2018-10-09T05:28:22.700Z,12.27
2018-10-09T05:30:51.788Z,12.13
2018-10-09T05:33:20.806Z,12.43
2018-10-09T05:35:49.843Z,10.87
2018-10-09T05:38:18.841Z,10.93
2018-10-09T05:40:47.847Z,11.40
2018-10-09T05:43:16.932Z,10.87
2018-10-09T05:45:45.921Z,10.83
2018-10-09T05:48:14.956Z,10.53
2018-10-09T05:50:43.989Z,11.37
2018-10-09T05:53:12.983Z,12.57
2018-10-09T05:55:41.982Z,15.50
2018-10-09T05:58:11.041Z,22.67
2018-10-09T06:00:40.047Z,21.23
2018-10-09T06:03:09.063Z,17.23
2018-10-09T06:05:38.082Z,16.13
2018-10-09T06:08:07.155Z,14.97
2018-10-09T06:10:36.461Z,14.07
2018-10-09T06:13:06.001Z,13.47
2018-10-09T06:15:35.100Z,12.73
2018-10-09T06:18:04.054Z,12.37
2018-10-09T06:20:33.057Z,13.47
2018-10-09T07:41:10.672Z,9.73
2018-10-09T07:43:42.354Z,11.00
2018-10-09T07:46:11.821Z,11.43
2018-10-09T07:48:41.310Z,11.87
2018-10-09T07:51:16.500Z,12.37
2018-10-09T07:53:45.989Z,11.20
2018-10-09T07:56:16.535Z,11.93
2018-10-09T07:58:46.163Z,12.40
2018-10-09T08:08:25.641Z,14.40
2018-10-09T08:10:55.222Z,14.80
2018-10-09T08:13:24.702Z,15.13
2018-10-09T08:15:54.289Z,14.33
2018-10-09T08:18:23.805Z,15.00
2018-10-09T08:23:43.153Z,14.57
2018-10-09T08:26:13.003Z,17.10
2018-10-09T08:28:42.938Z,20.23
2018-10-09T08:31:12.749Z,21.17
2018-10-09T08:33:43.823Z,18.80
2018-10-09T08:36:13.747Z,22.07
2018-10-09T08:38:43.596Z,20.10
2018-10-09T08:41:13.548Z,22.40
2018-10-09T08:43:43.245Z,20.93
2018-10-09T08:46:13.111Z,19.60
2018-10-09T08:48:43.269Z,20.33
2018-10-09T08:51:13.158Z,18.17
2018-10-09T08:53:43.711Z,16.33
2018-10-09T08:56:13.533Z,13.37
2018-10-09T08:58:43.688Z,15.07
2018-10-09T09:01:13.374Z,12.97
2018-10-09T09:03:45.108Z,13.62
2018-10-09T09:06:16.932Z,13.75
2018-10-09T09:08:46.783Z,13.25
2018-10-09T09:11:16.702Z,13.80
2018-10-09T09:13:47.965Z,12.37
2018-10-09T09:16:17.702Z,14.25
2018-10-09T09:18:47.730Z,14.73
2018-10-09T09:21:17.516Z,15.85
2018-10-09T09:23:47.378Z,14.87
2018-10-09T09:26:17.274Z,12.90
2018-10-09T09:28:47.367Z,15.80
2018-10-09T09:31:17.405Z,14.58
2018-10-09T09:33:47.846Z,14.68
2018-10-09T09:36:17.659Z,15.00
2018-10-09T09:38:47.140Z,16.30
2018-10-09T09:41:17.076Z,13.70
2018-10-09T09:43:48.165Z,15.00
2018-10-09T09:46:18.462Z,11.55
2018-10-09T09:48:48.175Z,10.68
2018-10-09T09:51:20.127Z,14.73
2018-10-09T09:53:49.897Z,13.60
2018-10-09T09:56:21.799Z,12.40
2018-10-09T09:58:51.736Z,11.28
2018-10-09T10:01:25.352Z,13.93
2018-10-09T10:03:56.611Z,12.03
2018-10-09T10:06:27.724Z,13.85
2018-10-09T10:08:57.361Z,12.10
2018-10-09T10:11:27.279Z,11.12
2018-10-09T10:13:57.149Z,12.78
2018-10-09T10:16:29.003Z,11.30
2018-10-09T10:18:58.763Z,10.32
2018-10-09T10:21:30.204Z,12.58
2018-10-09T10:24:01.183Z,11.90
2018-10-09T10:26:32.129Z,9.55
2018-10-09T10:29:02.179Z,13.13
2018-10-09T10:31:31.891Z,10.18
2018-10-09T10:34:01.805Z,13.18
2018-10-09T10:36:32.530Z,14.15
2018-10-09T10:39:03.173Z,12.98
2018-10-09T10:41:32.979Z,12.30
2018-10-09T10:44:03.349Z,10.82
2018-10-09T10:46:40.041Z,9.78
2018-10-09T10:49:12.118Z,13.20
2018-10-09T10:51:41.934Z,11.80
2018-10-09T10:54:11.870Z,12.78
2018-10-09T10:56:42.063Z,9.88
2018-10-09T10:59:11.913Z,13.58
2018-10-09T11:01:42.009Z,12.40
2018-10-09T11:04:11.869Z,12.07
2018-10-09T11:06:54.679Z,12.30
2018-10-09T11:09:24.562Z,11.93
2018-10-09T11:11:53.947Z,11.78
2018-10-09T11:14:23.324Z,9.93
2018-10-09T11:16:52.813Z,11.57
2018-10-09T11:19:23.575Z,11.25
2018-10-09T11:21:52.971Z,9.20
2018-10-09T11:24:23.934Z,8.33
2018-10-09T11:26:53.335Z,9.00
2018-10-09T11:29:22.729Z,12.73
2018-10-09T11:31:52.172Z,9.73
2018-10-09T11:34:21.620Z,9.88
2018-10-09T11:36:51.466Z,11.35
2018-10-09T11:39:21.316Z,10.53
2018-10-09T11:41:50.937Z,9.48
2018-10-09T11:44:20.293Z,11.08
2018-10-09T11:46:50.943Z,10.85
2018-10-09T11:49:20.326Z,11.03
2018-10-09T11:51:50.685Z,11.45
2018-10-09T11:54:20.046Z,11.38
2018-10-09T11:56:49.585Z,10.55
2018-10-09T11:59:19.014Z,10.35
2018-10-09T12:01:49.240Z,10.58
2018-10-09T12:04:18.598Z,10.77
2018-10-09T12:06:48.032Z,10.10
2018-10-09T12:09:17.456Z,9.20
2018-10-09T12:11:46.823Z,9.80
2018-10-09T12:14:16.287Z,9.67
2018-10-09T12:16:45.667Z,9.57
2018-10-09T12:19:15.059Z,8.57
2018-10-09T12:21:45.386Z,8.40
2018-10-09T12:24:15.228Z,7.40
2018-10-09T12:26:44.604Z,7.23
2018-10-09T12:29:15.112Z,6.70
2018-10-09T12:31:45.333Z,7.97
2018-10-09T12:34:16.143Z,7.27
2018-10-09T12:36:45.490Z,7.33
2018-10-09T12:39:15.778Z,8.17
2018-10-09T12:41:45.114Z,7.47
2018-10-09T12:44:14.480Z,7.30
2018-10-09T12:46:43.798Z,6.70
2018-10-09T12:49:13.235Z,6.40
2018-10-09T12:51:42.640Z,6.30
2018-10-09T12:54:12.066Z,5.90
2018-10-09T12:56:41.429Z,5.53
2018-10-09T12:59:10.887Z,5.97
2018-10-09T13:01:40.212Z,4.80
2018-10-09T13:04:09.587Z,4.73
2018-10-09T13:06:38.979Z,5.57
2018-10-09T13:09:10.640Z,4.77
2018-10-09T13:11:40.929Z,4.73
2018-10-09T13:14:10.400Z,5.33
2018-10-09T13:16:39.753Z,4.20
2018-10-09T13:19:09.092Z,5.10
2018-10-09T13:21:39.248Z,4.90
2018-10-09T13:24:08.589Z,4.57
2018-10-09T13:26:39.460Z,4.10
2018-10-09T13:29:10.362Z,5.40
2018-10-09T13:31:39.723Z,5.00
2018-10-09T13:34:09.199Z,4.30
2018-10-09T13:36:38.503Z,4.20
2018-10-09T13:39:09.867Z,4.57
2018-10-09T13:41:39.374Z,3.97
2018-10-09T13:44:12.902Z,4.00
2018-10-09T13:46:42.240Z,3.77
2018-10-09T13:49:12.511Z,3.67
2018-10-09T13:51:42.741Z,4.30
2018-10-09T13:54:12.297Z,3.87
2018-10-09T13:56:42.763Z,3.67
2018-10-09T13:59:12.185Z,3.50
2018-10-09T14:01:41.611Z,4.47
2018-10-09T14:04:10.980Z,3.97
2018-10-09T14:06:40.771Z,4.13
2018-10-09T14:09:11.707Z,5.10
2018-10-09T14:11:41.173Z,4.50
2018-10-09T14:14:10.629Z,4.63
2018-10-09T14:16:40.737Z,5.13
2018-10-09T14:19:10.095Z,4.60
2018-10-09T14:21:39.487Z,4.13
2018-10-09T14:24:08.857Z,4.40
2018-10-09T14:26:38.549Z,4.60
2018-10-09T14:29:08.051Z,4.23
2018-10-09T14:31:37.381Z,4.40
2018-10-09T14:34:07.040Z,4.93
2018-10-09T14:36:36.387Z,4.60
2018-10-09T14:39:07.511Z,5.10
2018-10-09T14:41:37.125Z,5.93
2018-10-09T14:44:06.641Z,5.43
2018-10-09T14:46:35.903Z,5.10
2018-10-09T14:49:04.958Z,5.07
2018-10-09T14:51:34.001Z,4.90
2018-10-09T14:54:03.219Z,4.53
2018-10-09T14:56:33.084Z,6.10
2018-10-09T14:59:03.088Z,6.20
2018-10-09T15:01:32.151Z,7.07
2018-10-09T15:04:01.286Z,6.60
2018-10-09T15:06:34.377Z,7.37
2018-10-09T15:09:06.754Z,5.97
2018-10-09T15:11:36.470Z,5.50
2018-10-09T15:14:13.528Z,6.93
2018-10-09T15:16:43.112Z,5.40
2018-10-09T15:19:16.506Z,5.73
2018-10-09T15:21:45.781Z,5.90
2018-10-09T15:24:15.509Z,5.50
2018-10-09T15:26:45.224Z,7.93
2018-10-09T15:29:15.299Z,6.20
2018-10-09T15:31:45.138Z,6.60
2018-10-09T15:34:15.074Z,7.13
2018-10-09T15:36:44.171Z,7.90
2018-10-09T15:39:14.641Z,6.70
2018-10-09T15:41:45.169Z,6.30
2018-10-09T15:44:14.272Z,6.77
2018-10-09T15:46:43.333Z,5.13
2018-10-09T15:49:12.902Z,5.33
2018-10-09T15:51:41.938Z,4.93
2018-10-09T15:54:10.983Z,5.10
2018-10-09T15:56:40.149Z,5.03
2018-10-09T15:59:09.161Z,5.17
2018-10-09T16:01:38.564Z,5.07
2018-10-09T16:04:07.723Z,5.00
2018-10-09T16:06:37.747Z,5.20
2018-10-09T16:09:09.950Z,5.23
2018-10-09T16:11:38.965Z,5.40
2018-10-09T16:14:09.435Z,4.60
2018-10-09T16:16:38.449Z,5.67
2018-10-09T16:19:07.706Z,5.23
2018-10-09T16:21:36.763Z,5.53
2018-10-09T16:24:05.853Z,5.13
2018-10-09T16:26:35.061Z,4.83
2018-10-09T16:29:06.441Z,5.33
2018-10-09T16:31:35.529Z,5.53
2018-10-09T16:34:05.848Z,6.13
2018-10-09T16:36:34.931Z,5.33
2018-10-09T16:39:09.320Z,5.10
2018-10-09T16:41:39.012Z,6.30
2018-10-09T16:44:08.042Z,6.93
2018-10-09T16:46:37.302Z,6.90
2018-10-09T16:49:06.358Z,6.70
2018-10-09T16:51:35.376Z,6.27
2018-10-09T16:54:04.484Z,6.50
2018-10-09T16:56:34.971Z,6.47
2018-10-09T16:59:04.997Z,7.07
2018-10-09T17:01:34.030Z,7.20
2018-10-09T17:04:03.104Z,9.43
2018-10-09T17:06:32.191Z,9.77
2018-10-09T17:09:01.196Z,8.00
2018-10-09T17:11:30.621Z,7.33
2018-10-09T17:13:59.824Z,6.00
2018-10-09T17:16:29.288Z,4.70
2018-10-09T17:18:58.328Z,4.87
2018-10-09T17:21:27.343Z,5.17
2018-10-09T17:23:56.344Z,9.67
2018-10-09T17:26:26.776Z,5.87
2018-10-09T17:28:55.904Z,5.10
2018-10-09T17:31:24.955Z,5.00
2018-10-09T17:33:55.106Z,5.77
2018-10-09T17:36:24.129Z,6.30
2018-10-09T17:38:53.677Z,6.90
2018-10-09T17:41:22.737Z,6.37
2018-10-09T17:43:51.764Z,6.70
2018-10-09T17:46:20.969Z,8.97
2018-10-09T17:48:50.772Z,11.13
2018-10-09T17:51:20.587Z,11.23
2018-10-09T17:53:51.364Z,25.97
2018-10-09T17:56:22.095Z,27.50
2018-10-09T17:58:53.473Z,58.57
2018-10-09T18:01:23.148Z,74.47
2018-10-09T18:03:52.646Z,51.10
2018-10-09T18:06:22.472Z,48.23
2018-10-09T18:08:51.529Z,51.80
2018-10-09T18:11:22.136Z,40.67
2018-10-09T18:13:51.256Z,20.10
2018-10-09T18:16:22.892Z,18.50
2018-10-09T18:18:51.982Z,12.87
2018-10-09T18:21:21.820Z,13.77
2018-10-09T18:23:51.821Z,14.03
2018-10-09T18:26:20.872Z,25.07
2018-10-09T18:28:50.461Z,23.73
2018-10-09T18:31:19.505Z,28.57
2018-10-09T18:33:48.557Z,30.50
2018-10-09T18:36:18.107Z,25.70
2018-10-09T18:38:47.297Z,14.50
2018-10-09T18:41:16.370Z,12.53
2018-10-09T18:43:45.391Z,13.27
2018-10-09T18:46:16.269Z,15.30
2018-10-09T18:48:45.311Z,14.83
2018-10-09T18:51:14.343Z,14.17
2018-10-09T18:53:44.715Z,11.20
2018-10-09T18:56:14.495Z,10.40
2018-10-09T18:58:43.843Z,8.87
2018-10-09T19:01:15.390Z,9.53
2018-10-09T19:03:44.425Z,8.87
2018-10-09T19:06:13.456Z,8.83
2018-10-09T19:08:42.499Z,9.00
2018-10-09T19:11:11.627Z,8.67
2018-10-09T19:13:40.652Z,8.80
2018-10-09T19:16:09.697Z,9.07
2018-10-09T19:18:38.811Z,8.63
2018-10-09T19:21:07.852Z,9.40
2018-10-09T19:23:38.176Z,9.73
2018-10-09T19:26:07.239Z,9.50
2018-10-09T19:28:36.267Z,10.30
2018-10-09T19:31:05.415Z,9.83
2018-10-09T19:33:34.754Z,9.57
2018-10-09T19:36:03.885Z,9.27
2018-10-09T19:38:34.156Z,9.33
2018-10-09T19:41:03.213Z,9.90
2018-10-09T19:43:33.280Z,9.67
2018-10-09T19:46:02.374Z,9.90
2018-10-09T19:48:31.447Z,9.53
2018-10-09T19:51:00.587Z,9.43
2018-10-09T19:53:29.500Z,10.03
2018-10-09T19:56:00.149Z,9.23
2018-10-09T19:58:30.528Z,9.83
2018-10-09T20:01:01.912Z,9.93
2018-10-09T20:03:33.290Z,10.33
2018-10-09T20:06:02.822Z,10.23
2018-10-09T20:08:31.932Z,10.30
2018-10-09T20:11:00.987Z,10.10
2018-10-09T20:13:30.140Z,10.63
2018-10-09T20:15:59.204Z,10.47
2018-10-09T20:18:28.486Z,10.27
2018-10-09T20:20:59.514Z,10.53
2018-10-09T20:23:28.574Z,10.63
2018-10-09T20:25:57.631Z,12.00
2018-10-09T20:28:26.657Z,11.23
2018-10-09T20:30:55.693Z,12.07
2018-10-09T20:33:24.753Z,11.93
2018-10-09T20:35:53.784Z,11.30
2018-10-09T20:38:23.321Z,12.63
2018-10-09T20:40:52.350Z,12.77
2018-10-09T20:43:22.444Z,12.20
2018-10-09T20:45:51.465Z,12.43
2018-10-09T20:48:20.616Z,13.63
2018-10-09T20:50:50.322Z,11.93
2018-10-09T20:53:19.586Z,13.37
2018-10-09T20:55:48.709Z,12.77
2018-10-09T20:58:17.748Z,13.13
2018-10-09T21:00:46.765Z,13.67
2018-10-09T21:03:15.789Z,13.57
2018-10-09T21:05:44.928Z,12.77
2018-10-09T21:08:14.595Z,13.13
2018-10-09T21:10:45.768Z,11.80
2018-10-09T21:13:16.391Z,12.40
2018-10-09T21:15:46.615Z,13.23
2018-10-09T21:18:15.804Z,12.90
2018-10-09T21:20:44.847Z,12.57
2018-10-09T21:23:13.883Z,13.03
2018-10-09T21:25:42.897Z,13.17
2018-10-09T21:28:11.960Z,13.90
2018-10-09T21:30:40.995Z,13.47
2018-10-09T21:33:11.421Z,15.80
2018-10-09T21:35:40.447Z,15.17
2018-10-09T21:38:10.696Z,15.83
2018-10-09T21:40:39.767Z,13.13
2018-10-09T21:43:08.778Z,14.10
2018-10-09T21:45:37.808Z,16.10
2018-10-09T21:48:06.866Z,15.80
2018-10-09T21:50:35.895Z,16.43
2018-10-09T21:53:04.925Z,17.07
2018-10-09T21:55:34.150Z,16.13
2018-10-09T21:58:03.213Z,15.27
2018-10-09T22:00:36.483Z,15.27
2018-10-09T22:03:05.523Z,16.07
2018-10-09T22:05:35.459Z,14.80
2018-10-09T22:08:04.553Z,14.57
2018-10-09T22:10:33.669Z,17.23
2018-10-09T22:13:03.680Z,16.90
2018-10-09T22:15:32.713Z,16.60
2018-10-09T22:18:01.741Z,16.07
2018-10-09T22:20:30.780Z,16.03
2018-10-09T22:22:59.834Z,16.73
2018-10-09T22:25:29.793Z,17.77
2018-10-09T22:27:58.813Z,19.43
2018-10-09T22:30:27.811Z,19.40
2018-10-09T22:32:56.867Z,18.30
2018-10-09T22:35:27.068Z,19.37
2018-10-09T22:37:56.120Z,18.93
2018-10-09T22:40:25.133Z,20.47
2018-10-09T22:42:55.478Z,19.77
2018-10-09T22:45:24.533Z,18.60
2018-10-09T22:47:53.609Z,20.50
2018-10-09T22:50:22.637Z,21.17
2018-10-09T22:52:51.647Z,19.57
2018-10-09T22:55:20.674Z,20.73
2018-10-09T22:57:49.718Z,20.43
2018-10-09T23:00:18.993Z,21.03
2018-10-09T23:02:48.029Z,20.40
2018-10-09T23:05:17.067Z,22.77
2018-10-09T23:07:47.084Z,20.77
2018-10-09T23:10:16.157Z,20.87
2018-10-09T23:12:45.141Z,20.70
2018-10-09T23:15:14.146Z,22.90
2018-10-09T23:17:43.229Z,21.00
2018-10-09T23:20:12.275Z,22.13
2018-10-09T23:22:41.304Z,21.77
2018-10-09T23:25:10.682Z,22.17
2018-10-09T23:27:39.736Z,22.43
2018-10-09T23:30:09.592Z,23.73
2018-10-09T23:32:38.621Z,22.87
2018-10-09T23:35:07.757Z,24.40
2018-10-09T23:37:36.772Z,24.23
2018-10-09T23:40:05.886Z,23.73
2018-10-09T23:42:34.917Z,22.83
2018-10-09T23:45:04.035Z,22.63
2018-10-09T23:47:33.043Z,23.77
2018-10-09T23:50:02.150Z,23.53
2018-10-09T23:52:31.244Z,23.17
2018-10-09T23:55:00.260Z,23.30
2018-10-09T23:57:29.377Z,22.77
2018-10-09T23:59:58.337Z,28.10
